createdAt,value
2019-02-17T00:01:52.608Z,15.13
2019-02-17T00:04:21.895Z,15.33
2019-02-17T00:06:51.200Z,14.67
2019-02-17T00:09:20.478Z,15.23
2019-02-17T00:11:50.346Z,15.37
2019-02-17T00:14:19.631Z,14.13
2019-02-17T00:16:48.968Z,13.97
2019-02-17T00:19:18.303Z,14.10
2019-02-17T00:21:48.635Z,14.47
2019-02-17T00:24:17.914Z,13.00
2019-02-17T00:26:47.195Z,13.90
2019-02-17T00:29:16.505Z,14.30
2019-02-17T00:31:45.786Z,14.07
2019-02-17T00:34:15.095Z,13.60
2019-02-17T00:36:44.943Z,13.93
2019-02-17T00:39:14.238Z,12.90
2019-02-17T00:41:43.514Z,15.13
2019-02-17T00:44:12.817Z,14.03
2019-02-17T00:46:42.174Z,12.80
2019-02-17T00:49:12.974Z,14.57
2019-02-17T00:51:43.733Z,13.37
2019-02-17T00:54:13.140Z,13.50
2019-02-17T00:56:42.427Z,14.83
2019-02-17T00:59:11.916Z,13.47
2019-02-17T01:01:41.223Z,14.57
2019-02-17T01:04:11.475Z,13.67
2019-02-17T01:06:40.783Z,13.30
2019-02-17T01:09:10.071Z,15.00
2019-02-17T01:11:39.371Z,13.27
2019-02-17T01:14:08.654Z,12.67
2019-02-17T01:16:38.541Z,14.23
2019-02-17T01:19:08.521Z,14.07
2019-02-17T01:21:37.819Z,15.70
2019-02-17T01:24:07.171Z,14.03
2019-02-17T01:26:36.480Z,14.20
2019-02-17T01:29:06.059Z,15.00
2019-02-17T01:31:36.065Z,13.73
2019-02-17T01:34:09.970Z,14.40
2019-02-17T01:36:39.280Z,13.77
2019-02-17T01:39:08.578Z,14.23
2019-02-17T01:41:37.859Z,13.37
2019-02-17T01:44:07.170Z,13.50
2019-02-17T01:46:38.400Z,13.57
2019-02-17T01:49:07.459Z,14.20
2019-02-17T01:51:37.371Z,12.60
2019-02-17T01:54:07.396Z,13.20
2019-02-17T01:56:36.670Z,13.53
2019-02-17T01:59:05.983Z,12.67
2019-02-17T02:01:35.339Z,13.17
2019-02-17T02:04:05.444Z,14.10
2019-02-17T02:06:34.730Z,14.00
2019-02-17T02:09:07.249Z,14.03
2019-02-17T02:11:36.903Z,15.03
2019-02-17T02:14:06.543Z,15.33
2019-02-17T02:16:35.870Z,15.63
2019-02-17T02:19:05.247Z,17.40
2019-02-17T02:21:36.071Z,17.00
2019-02-17T02:24:05.379Z,16.57
2019-02-17T02:26:34.663Z,16.93
2019-02-17T02:29:04.111Z,17.30
2019-02-17T02:31:34.668Z,17.40
2019-02-17T02:34:04.010Z,16.27
2019-02-17T02:36:33.300Z,18.03
2019-02-17T02:39:02.593Z,20.20
2019-02-17T02:41:34.936Z,18.77
2019-02-17T02:44:04.519Z,18.27
2019-02-17T02:46:33.829Z,16.77
2019-02-17T02:49:03.114Z,16.17
2019-02-17T02:51:33.389Z,15.87
2019-02-17T02:54:02.680Z,17.70
2019-02-17T02:56:33.057Z,15.70
2019-02-17T02:59:02.419Z,17.03
2019-02-17T03:01:31.734Z,16.57
2019-02-17T03:04:01.023Z,16.20
2019-02-17T03:06:50.118Z,17.57
2019-02-17T03:09:19.969Z,17.63
2019-02-17T03:11:49.260Z,16.20
2019-02-17T03:14:18.563Z,16.47
2019-02-17T03:16:47.849Z,16.87
2019-02-17T03:19:17.155Z,16.53
2019-02-17T03:21:46.451Z,16.40
2019-02-17T03:24:15.811Z,16.73
2019-02-17T03:26:45.104Z,15.77
2019-02-17T03:29:14.412Z,16.83
2019-02-17T03:31:43.700Z,17.83
2019-02-17T03:34:14.012Z,15.47
2019-02-17T03:36:44.316Z,15.27
2019-02-17T03:39:14.561Z,15.43
2019-02-17T03:41:43.852Z,16.17
2019-02-17T03:44:13.127Z,15.83
2019-02-17T03:46:42.444Z,16.77
2019-02-17T03:49:11.730Z,15.70
2019-02-17T03:51:41.081Z,15.97
2019-02-17T03:54:10.363Z,16.80
2019-02-17T03:56:39.668Z,16.70
2019-02-17T03:59:08.958Z,16.47
2019-02-17T04:01:38.276Z,16.87
2019-02-17T04:04:07.567Z,16.30
2019-02-17T04:06:36.875Z,16.73
2019-02-17T04:09:07.199Z,15.90
2019-02-17T04:11:36.583Z,16.30
2019-02-17T04:14:05.940Z,16.53
2019-02-17T04:16:35.254Z,16.73
2019-02-17T04:19:04.534Z,17.00
2019-02-17T04:21:33.851Z,16.23
2019-02-17T04:24:03.149Z,16.30
2019-02-17T04:26:32.461Z,15.93
2019-02-17T04:29:01.768Z,15.67
2019-02-17T04:31:31.061Z,16.53
2019-02-17T04:34:00.372Z,15.80
2019-02-17T04:36:29.659Z,14.70
2019-02-17T04:38:58.979Z,15.53
2019-02-17T04:41:28.261Z,17.10
2019-02-17T04:43:57.648Z,14.73
2019-02-17T04:46:26.930Z,15.77
2019-02-17T04:48:56.279Z,15.80
2019-02-17T04:51:25.571Z,14.87
2019-02-17T04:53:54.930Z,15.23
2019-02-17T04:56:24.462Z,15.63
2019-02-17T04:58:53.744Z,16.00
2019-02-17T05:01:24.704Z,15.27
2019-02-17T05:03:53.999Z,15.30
2019-02-17T05:06:23.305Z,14.50
2019-02-17T05:08:52.595Z,14.27
2019-02-17T05:11:21.900Z,14.70
2019-02-17T05:13:52.457Z,15.13
2019-02-17T05:16:21.787Z,14.87
2019-02-17T05:18:52.709Z,15.47
2019-02-17T05:21:22.023Z,14.30
2019-02-17T05:23:51.363Z,14.60
2019-02-17T05:26:20.650Z,13.97
2019-02-17T05:28:50.024Z,14.70
2019-02-17T05:31:19.311Z,15.13
2019-02-17T05:33:48.619Z,14.37
2019-02-17T05:36:19.127Z,14.70
2019-02-17T05:38:48.442Z,15.33
2019-02-17T05:41:17.726Z,14.93
2019-02-17T05:43:47.031Z,15.47
2019-02-17T05:46:16.311Z,15.33
2019-02-17T05:48:45.642Z,14.40
2019-02-17T05:51:14.933Z,13.67
2019-02-17T05:53:44.207Z,14.57
2019-02-17T05:56:13.524Z,14.03
2019-02-17T05:58:43.754Z,14.27
2019-02-17T06:01:13.063Z,16.07
2019-02-17T06:03:42.345Z,14.73
2019-02-17T06:06:14.857Z,15.90
2019-02-17T06:08:43.730Z,14.53
2019-02-17T06:11:13.609Z,13.03
2019-02-17T06:13:42.902Z,14.37
2019-02-17T06:16:12.195Z,13.67
2019-02-17T06:18:41.475Z,13.40
2019-02-17T06:21:12.316Z,15.47
2019-02-17T06:23:41.611Z,13.83
2019-02-17T06:26:10.996Z,15.00
2019-02-17T06:28:40.279Z,12.80
2019-02-17T06:31:14.455Z,14.27
2019-02-17T06:33:41.939Z,14.53
2019-02-17T06:36:11.216Z,12.97
2019-02-17T06:38:40.523Z,13.47
2019-02-17T06:41:10.774Z,13.43
2019-02-17T06:43:40.085Z,12.67
2019-02-17T06:46:11.009Z,12.80
2019-02-17T06:48:40.332Z,13.10
2019-02-17T06:51:09.663Z,13.43
2019-02-17T06:53:38.991Z,13.40
2019-02-17T06:56:15.569Z,12.87
2019-02-17T06:58:44.889Z,13.13
2019-02-17T07:01:24.154Z,12.27
2019-02-17T07:03:45.175Z,12.00
2019-02-17T07:06:16.364Z,12.30
2019-02-17T07:08:46.671Z,12.50
2019-02-17T07:11:16.751Z,12.50
2019-02-17T07:13:48.128Z,12.60
2019-02-17T07:16:19.062Z,11.53
2019-02-17T07:18:48.377Z,12.40
2019-02-17T07:21:18.255Z,12.80
2019-02-17T07:23:47.550Z,13.10
2019-02-17T07:26:17.333Z,12.50
2019-02-17T07:28:47.167Z,14.50
2019-02-17T07:31:16.490Z,13.73
2019-02-17T07:33:45.782Z,13.83
2019-02-17T07:36:15.083Z,12.87
2019-02-17T07:38:44.377Z,12.57
2019-02-17T07:41:13.692Z,13.27
2019-02-17T07:43:43.002Z,13.17
2019-02-17T07:46:12.309Z,12.40
2019-02-17T07:48:41.608Z,13.23
2019-02-17T07:51:10.895Z,13.63
2019-02-17T07:53:40.286Z,13.97
2019-02-17T07:56:09.570Z,13.07
2019-02-17T07:58:39.461Z,14.63
2019-02-17T08:01:08.751Z,14.00
2019-02-17T08:03:38.063Z,13.47
2019-02-17T08:06:07.351Z,14.67
2019-02-17T08:08:36.675Z,14.83
2019-02-17T08:11:05.958Z,15.83
2019-02-17T08:13:35.290Z,15.23
2019-02-17T08:16:04.591Z,15.57
2019-02-17T08:18:33.872Z,15.80
2019-02-17T08:21:03.187Z,16.23
2019-02-17T08:23:32.479Z,14.93
2019-02-17T08:26:01.788Z,15.30
2019-02-17T08:28:31.140Z,15.00
2019-02-17T08:31:00.463Z,14.67
2019-02-17T08:33:29.758Z,16.30
2019-02-17T08:35:59.076Z,16.90
2019-02-17T08:38:28.359Z,16.30
2019-02-17T08:40:57.681Z,16.07
2019-02-17T08:43:26.962Z,15.83
2019-02-17T08:45:57.604Z,16.70
2019-02-17T08:48:26.886Z,17.40
2019-02-17T08:50:56.207Z,17.37
2019-02-17T08:53:25.495Z,18.37
2019-02-17T08:55:56.342Z,19.03
2019-02-17T08:58:25.658Z,19.30
2019-02-17T09:00:54.950Z,18.83
2019-02-17T09:03:24.258Z,19.33
2019-02-17T09:05:53.556Z,18.97
2019-02-17T09:08:22.875Z,20.30
2019-02-17T09:10:52.408Z,19.97
2019-02-17T09:13:21.718Z,18.93
2019-02-17T09:15:51.032Z,19.70
2019-02-17T09:18:20.318Z,18.83
2019-02-17T09:20:50.576Z,19.13
2019-02-17T09:23:19.886Z,20.33
2019-02-17T09:25:49.171Z,21.33
2019-02-17T09:28:18.487Z,19.10
2019-02-17T09:30:47.998Z,19.53
2019-02-17T09:33:17.366Z,19.30
2019-02-17T09:35:46.640Z,19.20
2019-02-17T09:38:17.164Z,20.33
2019-02-17T09:40:46.623Z,20.03
2019-02-17T09:43:15.935Z,19.67
2019-02-17T09:45:45.255Z,19.77
2019-02-17T09:48:14.544Z,19.70
2019-02-17T09:50:43.868Z,18.93
2019-02-17T09:53:13.151Z,19.83
2019-02-17T09:55:42.459Z,20.60
2019-02-17T09:58:12.148Z,19.80
2019-02-17T10:00:41.659Z,20.60
2019-02-17T10:03:10.986Z,19.83
2019-02-17T10:05:41.390Z,20.00
2019-02-17T10:08:10.704Z,21.50
2019-02-17T10:10:40.005Z,19.60
2019-02-17T10:13:09.319Z,19.47
2019-02-17T10:15:38.614Z,20.87
2019-02-17T10:18:07.930Z,21.10
2019-02-17T10:20:38.148Z,20.90
2019-02-17T10:23:07.460Z,20.13
2019-02-17T10:25:37.723Z,20.63
2019-02-17T10:28:07.179Z,20.50
2019-02-17T10:30:36.464Z,21.67
2019-02-17T10:33:07.571Z,20.37
2019-02-17T10:35:36.863Z,20.53
2019-02-17T10:38:06.222Z,19.97
2019-02-17T10:40:37.626Z,19.70
2019-02-17T10:43:06.952Z,17.70
2019-02-17T10:45:36.239Z,18.97
2019-02-17T10:48:05.564Z,18.57
2019-02-17T10:50:36.223Z,17.60
2019-02-17T10:53:05.532Z,18.30
2019-02-17T10:55:34.823Z,19.20
2019-02-17T10:58:05.685Z,16.30
2019-02-17T11:00:35.050Z,18.33
2019-02-17T11:03:06.913Z,18.77
2019-02-17T11:05:36.295Z,16.60
2019-02-17T11:08:05.657Z,17.57
2019-02-17T11:10:34.991Z,16.80
2019-02-17T11:13:04.279Z,17.47
2019-02-17T11:15:33.575Z,16.23
2019-02-17T11:18:02.907Z,16.50
2019-02-17T11:20:32.759Z,18.30
2019-02-17T11:23:02.143Z,19.03
2019-02-17T11:25:31.435Z,18.10
2019-02-17T11:28:00.828Z,18.03
2019-02-17T11:30:32.387Z,18.23
2019-02-17T11:33:01.710Z,17.40
2019-02-17T11:35:30.992Z,17.80
2019-02-17T11:38:00.311Z,17.63
2019-02-17T11:40:29.671Z,17.23
2019-02-17T11:42:58.989Z,17.83
2019-02-17T11:45:28.267Z,17.43
2019-02-17T11:47:57.588Z,18.07
2019-02-17T11:50:26.877Z,16.73
2019-02-17T11:52:56.199Z,16.93
2019-02-17T11:55:25.487Z,18.83
2019-02-17T11:57:54.799Z,16.03
2019-02-17T12:00:24.096Z,17.23
2019-02-17T12:02:53.408Z,16.93
2019-02-17T12:05:22.780Z,16.77
2019-02-17T12:07:52.176Z,17.07
2019-02-17T12:10:22.518Z,17.20
2019-02-17T12:12:51.844Z,17.23
2019-02-17T12:15:21.147Z,17.60
2019-02-17T12:17:50.472Z,16.73
2019-02-17T12:20:38.335Z,19.10
2019-02-17T12:23:19.532Z,17.20
2019-02-17T12:25:52.007Z,17.17
2019-02-17T12:28:25.948Z,17.37
2019-02-17T12:30:55.243Z,16.17
2019-02-17T12:33:25.225Z,16.60
2019-02-17T12:35:54.511Z,17.20
2019-02-17T12:38:24.840Z,17.87
2019-02-17T12:40:54.143Z,18.27
2019-02-17T12:43:23.459Z,16.70
2019-02-17T12:45:52.755Z,17.53
2019-02-17T12:48:22.068Z,16.30
2019-02-17T12:50:51.363Z,16.83
2019-02-17T12:53:22.278Z,18.70
2019-02-17T12:55:52.578Z,18.87
2019-02-17T12:58:29.641Z,16.47
2019-02-17T13:00:52.907Z,17.10
2019-02-17T13:03:28.478Z,17.63
2019-02-17T13:05:53.248Z,17.40
2019-02-17T13:08:24.147Z,17.90
2019-02-17T13:10:53.515Z,17.73
2019-02-17T13:13:23.415Z,17.27
2019-02-17T13:15:54.327Z,15.50
2019-02-17T13:18:23.654Z,18.80
2019-02-17T13:20:53.024Z,18.33
2019-02-17T13:23:22.375Z,18.27
2019-02-17T13:25:51.674Z,16.57
2019-02-17T13:28:20.992Z,17.47
2019-02-17T13:30:50.305Z,16.03
2019-02-17T13:33:21.309Z,14.93
2019-02-17T13:35:50.579Z,15.47
2019-02-17T13:38:20.075Z,15.67
2019-02-17T13:40:49.370Z,15.23
2019-02-17T13:43:18.695Z,15.77
2019-02-17T13:45:47.992Z,14.90
2019-02-17T13:48:17.297Z,15.27
2019-02-17T13:50:46.591Z,14.53
2019-02-17T13:53:15.920Z,12.77
2019-02-17T13:55:45.203Z,13.03
2019-02-17T13:58:14.523Z,12.77
2019-02-17T14:00:43.811Z,11.73
2019-02-17T14:03:14.103Z,13.57
2019-02-17T14:05:43.395Z,12.93
2019-02-17T14:08:12.720Z,13.60
2019-02-17T14:10:43.531Z,15.10
2019-02-17T14:13:12.852Z,12.80
2019-02-17T14:15:42.151Z,14.20
2019-02-17T14:18:11.513Z,12.57
2019-02-17T14:20:43.977Z,12.13
2019-02-17T14:23:13.335Z,12.90
2019-02-17T14:25:43.954Z,12.67
2019-02-17T14:28:13.278Z,13.20
2019-02-17T14:30:42.564Z,12.03
2019-02-17T14:33:11.867Z,12.87
2019-02-17T14:35:41.724Z,13.47
2019-02-17T14:38:11.087Z,12.90
2019-02-17T14:40:40.874Z,12.30
2019-02-17T14:43:10.203Z,12.87
2019-02-17T14:45:39.499Z,13.10
2019-02-17T14:48:08.822Z,12.90
2019-02-17T14:50:38.135Z,15.53
2019-02-17T14:53:07.451Z,16.93
2019-02-17T14:55:36.740Z,13.43
2019-02-17T14:58:06.084Z,13.63
2019-02-17T15:00:35.372Z,13.17
2019-02-17T15:03:04.683Z,13.83
2019-02-17T15:05:33.982Z,13.87
2019-02-17T15:08:03.303Z,13.83
2019-02-17T15:10:32.650Z,13.70
2019-02-17T15:13:01.956Z,13.47
2019-02-17T15:15:32.935Z,13.97
2019-02-17T15:18:02.255Z,13.67
2019-02-17T15:20:31.539Z,14.43
2019-02-17T15:23:00.865Z,13.30
2019-02-17T15:25:30.147Z,16.77
2019-02-17T15:28:01.975Z,13.97
2019-02-17T15:30:31.260Z,14.33
2019-02-17T15:33:03.973Z,12.23
2019-02-17T15:35:32.576Z,12.73
2019-02-17T15:38:01.895Z,13.23
2019-02-17T15:40:31.183Z,12.37
2019-02-17T15:43:00.507Z,14.40
2019-02-17T15:45:29.809Z,14.43
2019-02-17T15:47:59.119Z,13.70
2019-02-17T15:50:28.419Z,13.53
2019-02-17T15:52:57.731Z,15.13
2019-02-17T15:55:27.028Z,12.53
2019-02-17T15:57:56.344Z,13.23
2019-02-17T16:00:25.632Z,13.10
2019-02-17T16:02:54.954Z,14.77
2019-02-17T16:05:24.247Z,12.17
2019-02-17T16:07:53.559Z,12.53
2019-02-17T16:10:22.855Z,22.03
2019-02-17T16:12:52.171Z,17.30
2019-02-17T16:15:23.431Z,12.87
2019-02-17T16:17:52.723Z,12.87
2019-02-17T16:20:22.036Z,14.10
2019-02-17T16:22:52.970Z,13.97
2019-02-17T16:25:22.304Z,15.77
2019-02-17T16:27:51.595Z,15.70
2019-02-17T16:30:22.915Z,14.13
2019-02-17T16:32:52.244Z,13.07
2019-02-17T16:35:23.076Z,13.63
2019-02-17T16:37:52.413Z,15.83
2019-02-17T16:40:21.716Z,13.70
2019-02-17T16:42:51.031Z,14.10
2019-02-17T16:45:20.328Z,16.70
2019-02-17T16:47:51.254Z,14.20
2019-02-17T16:50:25.997Z,13.40
2019-02-17T16:52:55.313Z,16.00
2019-02-17T16:55:24.607Z,16.67
2019-02-17T16:57:53.920Z,14.10
2019-02-17T17:00:23.654Z,14.00
2019-02-17T17:02:53.999Z,14.40
2019-02-17T17:05:24.042Z,15.43
2019-02-17T17:07:53.340Z,14.63
2019-02-17T17:10:22.669Z,15.50
2019-02-17T17:12:51.947Z,14.27
2019-02-17T17:15:21.977Z,15.40
2019-02-17T17:17:51.263Z,16.70
2019-02-17T17:20:21.719Z,12.97
2019-02-17T17:22:52.620Z,15.00
2019-02-17T17:25:22.022Z,15.93
2019-02-17T17:27:51.307Z,14.53
2019-02-17T17:30:20.591Z,15.57
2019-02-17T17:32:49.905Z,15.10
2019-02-17T17:35:19.199Z,15.33
2019-02-17T17:37:48.571Z,16.60
2019-02-17T17:40:18.408Z,14.60
2019-02-17T17:42:48.019Z,15.33
2019-02-17T17:45:20.691Z,14.60
2019-02-17T17:47:50.180Z,15.50
2019-02-17T17:50:19.462Z,17.60
2019-02-17T17:52:48.775Z,15.03
2019-02-17T17:55:18.092Z,16.43
2019-02-17T17:57:47.405Z,15.83
2019-02-17T18:00:19.170Z,16.67
2019-02-17T18:02:48.511Z,15.70
2019-02-17T18:05:17.796Z,14.43
2019-02-17T18:07:47.076Z,15.33
2019-02-17T18:10:17.615Z,15.40
2019-02-17T18:12:46.911Z,16.13
2019-02-17T18:15:17.866Z,14.87
2019-02-17T18:17:53.764Z,15.60
2019-02-17T18:20:19.235Z,13.33
2019-02-17T18:22:49.733Z,12.70
2019-02-17T18:25:19.118Z,12.97
2019-02-17T18:27:48.973Z,12.13
2019-02-17T18:30:21.218Z,12.50
2019-02-17T18:32:50.583Z,12.80
2019-02-17T18:35:20.964Z,12.37
2019-02-17T18:37:51.300Z,11.77
2019-02-17T18:40:23.131Z,11.87
2019-02-17T18:42:53.691Z,10.60
2019-02-17T18:45:23.013Z,12.97
2019-02-17T18:47:52.297Z,11.13
2019-02-17T18:50:21.588Z,11.97
2019-02-17T18:52:50.899Z,11.77
2019-02-17T18:55:20.192Z,11.53
2019-02-17T18:57:51.123Z,12.03
2019-02-17T19:00:24.847Z,11.13
2019-02-17T19:02:54.233Z,11.87
2019-02-17T19:05:31.695Z,13.33
2019-02-17T19:07:54.510Z,13.30
2019-02-17T19:10:23.799Z,12.57
2019-02-17T19:12:53.184Z,12.80
2019-02-17T19:15:22.868Z,12.67
2019-02-17T19:17:52.241Z,13.63
2019-02-17T19:20:30.035Z,11.53
2019-02-17T19:22:59.358Z,12.50
2019-02-17T19:25:28.639Z,10.83
2019-02-17T19:27:57.950Z,10.43
2019-02-17T19:30:27.230Z,10.43
2019-02-17T19:32:56.516Z,12.80
2019-02-17T19:35:25.827Z,11.67
2019-02-17T19:37:55.443Z,11.33
2019-02-17T19:40:24.720Z,11.03
2019-02-17T19:42:54.291Z,9.53
2019-02-17T19:45:23.598Z,9.77
2019-02-17T19:47:52.923Z,10.50
2019-02-17T19:50:22.262Z,10.00
2019-02-17T19:52:51.599Z,10.87
2019-02-17T19:55:20.921Z,11.27
2019-02-17T19:57:50.198Z,10.33
2019-02-17T20:00:21.531Z,10.50
2019-02-17T20:03:07.296Z,10.43
2019-02-17T20:05:38.251Z,9.93
2019-02-17T20:08:07.562Z,10.70
2019-02-17T20:10:36.883Z,10.07
2019-02-17T20:13:08.333Z,10.20
2019-02-17T20:15:37.243Z,8.83
2019-02-17T20:18:06.519Z,9.80
2019-02-17T20:20:35.832Z,10.40
2019-02-17T20:23:05.195Z,11.57
2019-02-17T20:25:34.513Z,12.37
2019-02-17T20:28:03.801Z,12.40
2019-02-17T20:30:33.120Z,13.63
2019-02-17T20:33:02.496Z,12.17
2019-02-17T20:35:32.771Z,16.77
2019-02-17T20:38:02.142Z,13.33
2019-02-17T20:40:31.448Z,13.07
2019-02-17T20:43:00.811Z,12.90
2019-02-17T20:45:31.733Z,12.73
2019-02-17T20:48:01.045Z,12.27
2019-02-17T20:50:30.331Z,12.30
2019-02-17T20:53:00.207Z,11.23
2019-02-17T20:55:30.870Z,10.90
2019-02-17T20:58:00.417Z,11.23
2019-02-17T21:00:29.699Z,10.03
2019-02-17T21:02:59.009Z,10.30
2019-02-17T21:05:28.532Z,11.07
2019-02-17T21:07:57.841Z,11.83
2019-02-17T21:10:27.835Z,12.60
2019-02-17T21:12:57.148Z,12.40
2019-02-17T21:15:26.603Z,13.10
2019-02-17T21:17:55.939Z,11.23
2019-02-17T21:20:25.219Z,11.90
2019-02-17T21:22:54.571Z,10.67
2019-02-17T21:25:23.880Z,11.07
2019-02-17T21:27:53.894Z,10.87
2019-02-17T21:30:23.190Z,10.90
2019-02-17T21:32:52.479Z,10.47
2019-02-17T21:35:22.018Z,9.60
2019-02-17T21:37:51.295Z,9.03
2019-02-17T21:40:20.608Z,11.67
2019-02-17T21:42:49.887Z,10.97
2019-02-17T21:45:19.202Z,10.73
2019-02-17T21:47:48.497Z,10.90
2019-02-17T21:50:18.658Z,9.60
2019-02-17T21:52:48.647Z,10.60
2019-02-17T21:55:17.971Z,10.50
2019-02-17T21:57:47.269Z,10.43
2019-02-17T22:00:19.860Z,10.00
2019-02-17T22:02:50.190Z,11.13
2019-02-17T22:05:19.628Z,11.20
2019-02-17T22:07:48.939Z,11.13
2019-02-17T22:10:19.962Z,14.00
2019-02-17T22:12:51.247Z,11.73
2019-02-17T22:15:21.700Z,11.93
2019-02-17T22:17:51.021Z,12.50
2019-02-17T22:20:20.294Z,11.97
2019-02-17T22:22:49.607Z,13.33
2019-02-17T22:25:19.044Z,12.57
2019-02-17T22:27:48.363Z,11.10
2019-02-17T22:30:17.660Z,10.53
2019-02-17T22:32:46.970Z,11.90
2019-02-17T22:35:17.695Z,10.17
2019-02-17T22:37:47.081Z,11.57
2019-02-17T22:40:16.732Z,9.60
2019-02-17T22:42:47.040Z,11.00
2019-02-17T22:45:17.968Z,10.77
2019-02-17T22:47:47.277Z,11.33
2019-02-17T22:50:16.632Z,9.93
2019-02-17T22:52:45.918Z,10.10
2019-02-17T22:55:15.300Z,10.03
2019-02-17T22:57:44.590Z,10.30
2019-02-17T23:00:20.039Z,9.23
2019-02-17T23:02:50.949Z,10.00
2019-02-17T23:05:21.586Z,9.40
2019-02-17T23:07:51.043Z,9.30
2019-02-17T23:10:20.347Z,9.03
2019-02-17T23:12:49.695Z,9.40
2019-02-17T23:15:19.016Z,9.20
2019-02-17T23:17:48.284Z,8.37
2019-02-17T23:20:17.592Z,8.27
2019-02-17T23:22:46.876Z,8.47
2019-02-17T23:25:16.348Z,9.70
2019-02-17T23:27:46.007Z,9.37
2019-02-17T23:30:16.392Z,10.03
2019-02-17T23:32:45.676Z,9.33
2019-02-17T23:35:14.991Z,9.43
2019-02-17T23:37:44.314Z,8.90
2019-02-17T23:40:13.659Z,8.53
2019-02-17T23:42:43.084Z,8.50
2019-02-17T23:45:13.511Z,8.90
2019-02-17T23:47:42.823Z,8.60
2019-02-17T23:50:13.439Z,9.30
2019-02-17T23:52:42.781Z,9.60
2019-02-17T23:55:12.663Z,9.07
2019-02-17T23:57:41.988Z,9.67
